Other Surface Observations
Issued by NWS Great Falls, MT

Home | Current Version | Previous Version | Text Only | Print | Product List | Glossary On
Versions: 1 2 3 4 5 6 7 8 9 10 11 12 13 14 15 16 17 18 19 20 21 22 23 24 25 26 27 28 29 30 31 32 33 34 35 36 37 38 39 40 41 42 43 44 45 46 47 48 49 50
000
SXUS55 KTFX 221644
OSOTFX
AREA AWOS OBSERVATIONS
NATIONAL WEATHER SERVICE GREAT FALLS MT
1044 AM MDT SUN JUL 22 2018

METAR KPO1 221645Z AUTO 33012G21KT 10SM 24/07 A3007 RMK POPLAR
METAR K1S3 221645Z AUTO 34013G21KT 24/04 A3017 RMK FORSYTH
METAR KS71 221645Z AUTO 27014G19KT 10SM 21/06 A3019 RMK CHINOOK
METAR K38S 221645Z AUTO 04004KT 10SM 18/01 A3033 RMK DEER LODGE
METAR K3U3 221645Z AUTO 01004KT 10SM 18/01 A3031 RMK ANACONDA



USA.gov is the U.S. government's official web portal to all federal, state and local government web resources and services.